createdAt,value
2022-08-01T00:01:55.090Z,23.10
2022-08-01T00:04:57.775Z,23.08
2022-08-01T00:08:01.781Z,23.19
2022-08-01T00:11:04.713Z,22.99
2022-08-01T00:14:07.413Z,23.04
2022-08-01T00:17:10.166Z,23.03
2022-08-01T00:20:14.763Z,22.95
2022-08-01T00:23:18.925Z,22.95
2022-08-01T00:26:21.738Z,22.91
2022-08-01T00:30:12.432Z,22.95
2022-08-01T00:32:47.127Z,22.93
2022-08-01T00:35:49.798Z,22.88
2022-08-01T00:38:53.841Z,22.79
2022-08-01T00:42:01.821Z,22.76
2022-08-01T00:45:04.690Z,22.77
2022-08-01T00:48:07.506Z,22.80
2022-08-01T00:51:10.446Z,22.73
2022-08-01T00:54:16.508Z,22.68
2022-08-01T00:58:03.225Z,22.72
2022-08-01T01:00:53.977Z,22.66
2022-08-01T01:03:59.151Z,22.66
2022-08-01T01:07:09.194Z,22.66
2022-08-01T01:10:18.709Z,22.60
2022-08-01T01:13:26.781Z,22.52
2022-08-01T01:16:31.103Z,22.47
2022-08-01T01:19:35.953Z,22.54
2022-08-01T01:22:49.826Z,22.45
2022-08-01T01:26:10.365Z,22.43
2022-08-01T01:29:16.695Z,22.52
2022-08-01T01:32:22.108Z,22.39
2022-08-01T01:35:36.718Z,22.39
2022-08-01T01:38:43.772Z,22.41
2022-08-01T01:41:47.789Z,22.37
2022-08-01T01:44:52.119Z,22.36
2022-08-01T01:47:55.104Z,22.33
2022-08-01T01:50:58.885Z,22.33
2022-08-01T01:54:01.718Z,22.30
2022-08-01T01:57:06.015Z,22.25
2022-08-01T02:00:11.380Z,22.26
2022-08-01T02:03:15.734Z,22.17
2022-08-01T02:06:18.864Z,22.19
2022-08-01T02:09:22.054Z,22.17
2022-08-01T02:12:25.889Z,22.11
2022-08-01T02:15:31.639Z,22.11
2022-08-01T02:18:34.577Z,22.04
2022-08-01T02:21:42.374Z,22.07
2022-08-01T02:24:52.532Z,22.00
2022-08-01T02:28:01.587Z,21.84
2022-08-01T02:31:10.492Z,21.82
2022-08-01T02:34:15.590Z,21.79
2022-08-01T02:37:19.200Z,21.79
2022-08-01T02:40:22.631Z,21.75
2022-08-01T02:43:27.252Z,21.79
2022-08-01T02:46:41.028Z,21.68
2022-08-01T02:49:46.289Z,21.57
2022-08-01T02:52:50.847Z,21.65
2022-08-01T02:55:54.923Z,21.55
2022-08-01T02:58:57.951Z,21.58
2022-08-01T03:02:05.425Z,21.49
2022-08-01T03:05:10.247Z,21.48
2022-08-01T03:08:15.064Z,21.47
2022-08-01T03:11:18.200Z,21.37
2022-08-01T03:14:20.653Z,21.45
2022-08-01T03:17:27.708Z,21.33
2022-08-01T03:20:32.079Z,21.37
2022-08-01T03:23:37.972Z,21.33
2022-08-01T03:26:41.743Z,21.28
2022-08-01T03:29:45.705Z,21.32
2022-08-01T03:32:49.852Z,21.29
2022-08-01T03:35:55.764Z,21.25
2022-08-01T03:39:00.457Z,21.23
2022-08-01T03:42:11.778Z,21.21
2022-08-01T03:45:21.545Z,21.23
2022-08-01T03:48:30.803Z,21.22
2022-08-01T03:51:34.023Z,21.27
2022-08-01T03:54:38.610Z,21.24
2022-08-01T03:57:42.071Z,21.32
2022-08-01T04:00:45.432Z,21.32
2022-08-01T04:03:49.622Z,21.33
2022-08-01T04:06:54.983Z,21.36
2022-08-01T04:09:57.802Z,21.34
2022-08-01T04:13:00.470Z,21.32
2022-08-01T04:16:03.379Z,21.39
2022-08-01T04:19:08.539Z,21.50
2022-08-01T04:22:12.443Z,21.54
2022-08-01T04:25:19.091Z,21.60
2022-08-01T04:28:23.307Z,21.56
2022-08-01T04:31:27.310Z,21.55
2022-08-01T04:34:33.018Z,21.62
2022-08-01T04:37:37.922Z,21.56
2022-08-01T04:40:42.373Z,21.60
2022-08-01T04:43:45.494Z,21.61
2022-08-01T04:46:49.367Z,21.53
2022-08-01T04:49:53.671Z,21.64
2022-08-01T04:52:56.993Z,21.73
2022-08-01T04:55:59.775Z,21.77
2022-08-01T04:59:20.457Z,21.80
2022-08-01T05:02:23.405Z,21.90
2022-08-01T05:05:28.234Z,21.97
2022-08-01T05:08:30.887Z,22.03
2022-08-01T05:11:33.730Z,22.07
2022-08-01T05:14:36.919Z,22.13
2022-08-01T05:17:39.714Z,22.39
2022-08-01T05:20:44.342Z,22.46
2022-08-01T05:23:47.090Z,22.63
2022-08-01T05:26:49.999Z,22.87
2022-08-01T05:29:52.905Z,22.87
2022-08-01T05:32:55.554Z,22.89
2022-08-01T05:36:01.669Z,22.86
2022-08-01T05:39:04.545Z,22.96
2022-08-01T05:42:08.091Z,22.98
2022-08-01T05:45:12.144Z,23.08
2022-08-01T05:48:14.851Z,23.18
2022-08-01T05:51:18.829Z,23.25
2022-08-01T05:54:21.636Z,23.29
2022-08-01T05:57:24.658Z,23.43
2022-08-01T06:00:27.220Z,23.49
2022-08-01T06:03:32.169Z,23.57
2022-08-01T06:06:39.290Z,23.70
2022-08-01T06:09:42.266Z,23.92
2022-08-01T06:12:44.902Z,24.05
2022-08-01T06:15:47.722Z,24.01
2022-08-01T06:18:53.821Z,24.13
2022-08-01T06:22:00.383Z,24.29
2022-08-01T06:25:03.332Z,24.40
2022-08-01T06:28:06.292Z,24.16
2022-08-01T06:31:11.153Z,24.21
2022-08-01T06:34:14.191Z,24.24
2022-08-01T06:37:18.129Z,24.32
2022-08-01T06:40:21.227Z,24.21
2022-08-01T06:43:24.347Z,24.50
2022-08-01T06:46:30.260Z,24.76
2022-08-01T06:49:34.902Z,24.71
2022-08-01T06:52:39.207Z,24.86
2022-08-01T06:55:42.079Z,24.82
2022-08-01T06:58:45.098Z,25.03
2022-08-01T07:01:47.935Z,24.91
2022-08-01T07:04:51.065Z,24.94
2022-08-01T07:07:55.382Z,25.27
2022-08-01T07:11:00.214Z,25.70
2022-08-01T07:14:04.131Z,25.90
2022-08-01T07:17:07.175Z,26.09
2022-08-01T07:20:12.282Z,26.50
2022-08-01T07:23:22.698Z,26.23
2022-08-01T07:26:33.255Z,25.95
2022-08-01T07:29:35.875Z,25.56
2022-08-01T07:32:38.488Z,25.54
2022-08-01T07:35:42.188Z,25.50
2022-08-01T07:38:46.169Z,25.88
2022-08-01T07:42:06.118Z,26.55
2022-08-01T07:45:11.534Z,27.25
2022-08-01T07:48:14.689Z,27.18
2022-08-01T07:51:17.485Z,27.10
2022-08-01T07:54:21.576Z,26.64
2022-08-01T07:57:36.682Z,26.74
2022-08-01T08:00:39.492Z,27.47
2022-08-01T08:03:41.978Z,27.67
2022-08-01T08:06:45.621Z,27.73
2022-08-01T08:09:51.218Z,28.10
2022-08-01T08:12:54.029Z,28.49
2022-08-01T08:15:56.793Z,28.21
2022-08-01T08:19:00.900Z,28.43
2022-08-01T08:22:03.768Z,27.83
2022-08-01T08:25:09.281Z,27.61
2022-08-01T08:28:11.848Z,27.36
2022-08-01T08:31:25.214Z,28.19
2022-08-01T08:34:37.388Z,28.06
2022-08-01T08:37:47.355Z,28.62
2022-08-01T08:40:52.320Z,28.99
2022-08-01T08:43:55.463Z,29.83
2022-08-01T08:47:00.181Z,28.44
2022-08-01T08:50:04.746Z,28.24
2022-08-01T08:53:07.736Z,28.36
2022-08-01T08:56:12.602Z,29.42
2022-08-01T08:59:15.979Z,28.98
2022-08-01T09:02:18.831Z,28.83
2022-08-01T09:05:26.530Z,28.69
2022-08-01T09:08:42.316Z,29.21
2022-08-01T09:11:56.959Z,28.94
2022-08-01T09:15:00.611Z,28.64
2022-08-01T09:18:03.133Z,29.10
2022-08-01T09:21:25.219Z,29.61
2022-08-01T09:24:30.855Z,29.13
2022-08-01T09:27:36.157Z,30.04
2022-08-01T09:30:40.963Z,31.10
2022-08-01T09:33:54.449Z,31.27
2022-08-01T09:36:59.667Z,30.87
2022-08-01T09:40:03.469Z,30.67
2022-08-01T09:43:14.975Z,31.00
2022-08-01T09:46:18.293Z,30.44
2022-08-01T09:49:49.719Z,30.48
2022-08-01T09:52:57.212Z,30.86
2022-08-01T09:56:11.724Z,30.63
2022-08-01T09:59:17.466Z,30.48
2022-08-01T10:02:30.492Z,30.72
2022-08-01T10:05:37.136Z,30.97
2022-08-01T10:08:48.624Z,30.19
2022-08-01T10:11:52.650Z,30.64
2022-08-01T10:14:58.499Z,30.12
2022-08-01T10:18:03.766Z,30.68
2022-08-01T10:21:08.754Z,30.29
2022-08-01T10:24:14.933Z,30.57
2022-08-01T10:27:36.362Z,30.32
2022-08-01T10:30:43.722Z,29.95
2022-08-01T10:33:50.689Z,30.28
2022-08-01T10:36:56.195Z,29.64
2022-08-01T10:40:27.324Z,29.97
2022-08-01T10:43:22.394Z,30.41
2022-08-01T10:46:26.664Z,31.26
2022-08-01T10:49:32.428Z,30.37
2022-08-01T10:52:39.447Z,28.90
2022-08-01T10:55:49.873Z,28.41
2022-08-01T10:59:06.056Z,28.65
2022-08-01T11:02:11.034Z,28.96
2022-08-01T11:05:20.578Z,29.49
2022-08-01T11:08:27.060Z,29.60
2022-08-01T11:11:30.089Z,30.26
2022-08-01T11:15:17.006Z,31.78
2022-08-01T11:18:33.772Z,30.39
2022-08-01T11:22:03.459Z,30.20
2022-08-01T11:25:06.686Z,30.30
2022-08-01T11:28:29.146Z,30.13
2022-08-01T11:31:36.985Z,30.91
2022-08-01T11:34:56.276Z,30.51
2022-08-01T11:38:00.305Z,30.14
2022-08-01T11:41:12.361Z,30.20
2022-08-01T11:44:24.868Z,31.14
2022-08-01T11:47:47.576Z,31.60
2022-08-01T11:50:55.324Z,31.10
2022-08-01T11:53:59.792Z,31.35
2022-08-01T11:57:05.151Z,31.61
2022-08-01T12:00:15.381Z,32.06
2022-08-01T12:03:32.994Z,32.62
2022-08-01T12:06:38.254Z,31.57
2022-08-01T12:09:44.351Z,30.55
2022-08-01T12:12:49.353Z,29.82
2022-08-01T12:15:56.550Z,30.58
2022-08-01T12:18:59.644Z,32.05
2022-08-01T12:22:15.312Z,31.55
2022-08-01T12:25:19.432Z,30.84
2022-08-01T12:28:22.133Z,30.21
2022-08-01T12:31:33.478Z,29.85
2022-08-01T12:34:36.373Z,29.82
2022-08-01T12:37:41.283Z,29.60
2022-08-01T12:40:45.932Z,29.53
2022-08-01T12:43:48.943Z,30.22
2022-08-01T12:46:51.664Z,31.61
2022-08-01T12:49:54.783Z,32.07
2022-08-01T12:52:59.289Z,33.39
2022-08-01T12:56:01.952Z,32.83
2022-08-01T12:59:21.797Z,32.86
2022-08-01T13:02:33.790Z,32.37
2022-08-01T13:05:46.857Z,32.11
2022-08-01T13:08:51.012Z,32.52
2022-08-01T13:12:04.401Z,34.54
2022-08-01T13:15:25.460Z,35.71
2022-08-01T13:18:29.434Z,37.96
2022-08-01T13:21:52.193Z,34.03
2022-08-01T13:25:11.595Z,32.14
2022-08-01T13:28:18.205Z,34.81
2022-08-01T13:31:20.964Z,42.65
2022-08-01T13:34:31.997Z,40.59
2022-08-01T13:37:34.933Z,36.40
2022-08-01T13:40:41.076Z,37.80
2022-08-01T13:43:58.015Z,35.26
2022-08-01T13:47:02.140Z,32.52
2022-08-01T13:50:17.547Z,33.50
2022-08-01T13:53:20.112Z,34.23
2022-08-01T13:56:24.224Z,35.49
2022-08-01T13:59:27.203Z,39.92
2022-08-01T14:02:29.929Z,40.04
2022-08-01T14:05:32.647Z,35.64
2022-08-01T14:08:35.596Z,35.34
2022-08-01T14:11:40.093Z,35.61
2022-08-01T14:14:48.633Z,34.36
2022-08-01T14:17:51.330Z,34.89
2022-08-01T14:20:54.936Z,34.55
2022-08-01T14:24:01.968Z,35.13
2022-08-01T14:27:06.550Z,36.37
2022-08-01T14:30:10.715Z,36.59
2022-08-01T14:33:13.886Z,36.78
2022-08-01T14:36:29.109Z,36.46
2022-08-01T14:39:34.156Z,35.78
2022-08-01T14:42:39.860Z,33.13
2022-08-01T14:45:42.688Z,34.82
2022-08-01T14:48:45.429Z,36.01
2022-08-01T14:51:48.248Z,38.88
2022-08-01T14:54:50.875Z,38.06
2022-08-01T14:57:55.522Z,41.67
2022-08-01T15:00:59.190Z,39.23
2022-08-01T15:04:02.342Z,35.60
2022-08-01T15:07:07.345Z,35.37
2022-08-01T15:10:10.979Z,35.20
2022-08-01T15:13:15.181Z,39.07
2022-08-01T15:16:17.797Z,42.34
2022-08-01T15:19:20.687Z,42.31
2022-08-01T15:22:24.245Z,42.37
2022-08-01T15:25:26.867Z,41.83
2022-08-01T15:28:44.660Z,37.14
2022-08-01T15:31:47.656Z,35.17
2022-08-01T15:34:50.381Z,33.50
2022-08-01T15:37:53.031Z,32.58
2022-08-01T15:40:55.840Z,33.76
2022-08-01T15:43:59.839Z,33.51
2022-08-01T15:47:03.025Z,32.74
2022-08-01T15:50:06.717Z,32.20
2022-08-01T15:53:09.403Z,32.67
2022-08-01T15:56:12.101Z,31.97
2022-08-01T15:59:16.354Z,31.01
2022-08-01T16:02:19.144Z,31.12
2022-08-01T16:05:21.870Z,30.97
2022-08-01T16:08:24.801Z,31.17
2022-08-01T16:11:27.875Z,31.83
2022-08-01T16:14:31.878Z,31.65
2022-08-01T16:17:37.296Z,30.35
2022-08-01T16:20:45.387Z,30.75
2022-08-01T16:23:48.420Z,31.46
2022-08-01T16:26:51.613Z,32.65
2022-08-01T16:29:55.762Z,33.83
2022-08-01T16:33:00.061Z,32.75
2022-08-01T16:36:08.771Z,32.59
2022-08-01T16:39:22.995Z,31.42
2022-08-01T16:42:27.582Z,30.45
2022-08-01T16:45:32.378Z,30.22
2022-08-01T16:48:35.213Z,30.97
2022-08-01T16:51:42.103Z,30.97
2022-08-01T16:54:51.086Z,30.24
2022-08-01T16:57:53.882Z,29.98
2022-08-01T17:02:01.593Z,29.63
2022-08-01T17:04:20.871Z,29.84
2022-08-01T17:07:23.529Z,29.90
2022-08-01T17:10:26.620Z,29.47
2022-08-01T17:13:29.268Z,29.73
2022-08-01T17:16:37.503Z,30.45
2022-08-01T17:19:40.838Z,30.29
2022-08-01T17:22:43.796Z,30.35
2022-08-01T17:25:46.675Z,29.71
2022-08-01T17:28:49.325Z,29.03
2022-08-01T17:31:53.502Z,29.12
2022-08-01T17:34:56.228Z,28.74
2022-08-01T17:37:58.986Z,28.96
2022-08-01T17:41:01.746Z,28.86
2022-08-01T17:44:04.556Z,28.79
2022-08-01T17:47:09.283Z,28.46
2022-08-01T17:50:12.807Z,28.14
2022-08-01T17:53:20.765Z,27.89
2022-08-01T17:56:24.394Z,27.90
2022-08-01T17:59:27.193Z,27.76
2022-08-01T18:02:31.307Z,27.74
2022-08-01T18:05:36.641Z,27.69
2022-08-01T18:08:41.779Z,27.58
2022-08-01T18:11:44.525Z,27.58
2022-08-01T18:14:47.503Z,27.54
2022-08-01T18:17:53.433Z,27.40
2022-08-01T18:20:56.048Z,27.31
2022-08-01T18:24:01.429Z,27.21
2022-08-01T18:27:04.499Z,27.15
2022-08-01T18:30:08.977Z,26.99
2022-08-01T18:33:12.862Z,26.84
2022-08-01T18:36:32.878Z,26.81
2022-08-01T18:39:36.349Z,26.77
2022-08-01T18:42:41.891Z,26.70
2022-08-01T18:45:44.445Z,26.60
2022-08-01T18:48:48.622Z,26.49
2022-08-01T18:51:51.458Z,26.43
2022-08-01T18:54:54.109Z,26.38
2022-08-01T18:57:56.687Z,26.33
2022-08-01T19:00:59.406Z,26.26
2022-08-01T19:04:03.399Z,26.23
2022-08-01T19:07:06.409Z,26.18
2022-08-01T19:10:11.423Z,26.22
2022-08-01T19:13:14.580Z,26.19
2022-08-01T19:16:17.710Z,26.13
2022-08-01T19:19:24.770Z,26.03
2022-08-01T19:22:30.778Z,25.77
2022-08-01T19:25:33.520Z,25.46
2022-08-01T19:28:58.379Z,25.36
2022-08-01T19:32:01.338Z,25.33
2022-08-01T19:35:11.270Z,25.46
2022-08-01T19:38:15.866Z,25.49
2022-08-01T19:41:19.323Z,25.50
2022-08-01T19:44:23.760Z,25.46
2022-08-01T19:47:26.505Z,25.48
2022-08-01T19:50:52.342Z,25.54
2022-08-01T19:53:55.692Z,25.56
2022-08-01T19:57:02.376Z,25.54
2022-08-01T20:00:06.150Z,25.59
2022-08-01T20:03:09.329Z,25.54
2022-08-01T20:06:13.428Z,25.13
2022-08-01T20:09:16.051Z,24.21
2022-08-01T20:12:21.567Z,23.94
2022-08-01T20:15:24.819Z,23.71
2022-08-01T20:18:27.606Z,23.66
2022-08-01T20:21:32.347Z,23.55
2022-08-01T20:24:39.647Z,23.48
2022-08-01T20:27:45.599Z,23.43
2022-08-01T20:30:49.089Z,23.34
2022-08-01T20:33:51.676Z,23.32
2022-08-01T20:36:56.955Z,23.25
2022-08-01T20:40:00.431Z,23.34
2022-08-01T20:43:04.826Z,23.34
2022-08-01T20:46:07.842Z,23.39
2022-08-01T20:49:11.643Z,23.50
2022-08-01T20:52:16.772Z,23.57
2022-08-01T20:55:19.614Z,23.41
2022-08-01T20:58:28.900Z,23.35
2022-08-01T21:01:35.280Z,23.34
2022-08-01T21:04:43.918Z,23.38
2022-08-01T21:07:51.485Z,23.36
2022-08-01T21:10:57.322Z,23.38
2022-08-01T21:14:02.211Z,23.23
2022-08-01T21:17:08.735Z,22.91
2022-08-01T21:20:13.951Z,22.79
2022-08-01T21:23:23.067Z,22.79
2022-08-01T21:26:26.542Z,22.66
2022-08-01T21:29:29.963Z,22.47
2022-08-01T21:32:33.956Z,22.58
2022-08-01T21:35:37.878Z,22.40
2022-08-01T21:38:43.709Z,22.38
2022-08-01T21:41:56.634Z,22.37
2022-08-01T21:45:10.538Z,22.23
2022-08-01T21:48:14.629Z,22.24
2022-08-01T21:51:37.180Z,21.98
2022-08-01T21:54:58.686Z,21.99
2022-08-01T21:58:19.799Z,21.72
2022-08-01T22:01:28.696Z,21.32
2022-08-01T22:04:38.880Z,20.99
2022-08-01T22:07:44.666Z,20.85
2022-08-01T22:10:50.209Z,20.90
2022-08-01T22:13:55.069Z,20.89
2022-08-01T22:16:58.720Z,20.73
2022-08-01T22:20:02.098Z,20.61
2022-08-01T22:23:06.620Z,20.58
2022-08-01T22:26:11.824Z,20.52
2022-08-01T22:29:14.727Z,20.52
2022-08-01T22:32:17.757Z,20.48
2022-08-01T22:35:20.536Z,20.35
2022-08-01T22:38:24.958Z,20.19
2022-08-01T22:42:01.845Z,20.18
2022-08-01T22:45:00.689Z,20.20
2022-08-01T22:48:16.437Z,20.09
2022-08-01T22:51:28.267Z,20.00
2022-08-01T22:54:37.045Z,19.93
2022-08-01T22:57:54.956Z,19.98
2022-08-01T23:01:01.121Z,20.00
2022-08-01T23:04:04.129Z,20.02
2022-08-01T23:07:07.917Z,19.91
2022-08-01T23:10:11.031Z,19.86
2022-08-01T23:13:16.067Z,19.83
2022-08-01T23:16:19.345Z,19.85
2022-08-01T23:19:22.041Z,19.94
2022-08-01T23:22:25.140Z,19.96
2022-08-01T23:25:27.637Z,20.03
2022-08-01T23:28:31.722Z,20.01
2022-08-01T23:32:10.658Z,20.00
2022-08-01T23:34:57.168Z,19.88
2022-08-01T23:38:02.810Z,19.77
2022-08-01T23:41:14.817Z,19.82
2022-08-01T23:44:18.831Z,19.61
2022-08-01T23:47:21.515Z,19.47
2022-08-01T23:50:24.510Z,19.44
2022-08-01T23:53:31.474Z,19.32
2022-08-01T23:56:34.165Z,19.26
2022-08-01T23:59:52.500Z,19.27
